Time;durP1;ratioP1;P1;durP2;ratioP2;P2;SDS_P1;SDS_P2;PMS_P1;PMS_P2;Temp;Humidity;BMP_temperature;BMP_pressure;BME280_temperature;BME280_humidity;BME280_pressure;Samples;Min_cycle;Max_cycle;Signal;HPM_P1;HPM_P2
2022/01/12 00:01:36;;;;;;;;;;;20.40;34.40;;;;;;482434;246;1404;-43
2022/01/12 00:03:37;;;;;;;;;;;20.30;34.30;;;;;;482586;246;2121;-44
2022/01/12 00:05:39;;;;;;;;;;;20.40;34.50;;;;;;482714;246;1482;-44
2022/01/12 00:07:40;;;;;;;;;;;20.40;34.40;;;;;;482443;246;1594;-44
2022/01/12 00:09:41;;;;;;;;;;;20.40;34.50;;;;;;482328;246;1186;-44
2022/01/12 00:11:43;;;;;;;;;;;20.40;34.40;;;;;;482682;246;1165;-44
2022/01/12 00:13:44;;;;;;;;;;;20.40;34.40;;;;;;482345;246;1182;-44
2022/01/12 00:15:45;;;;;;;;;;;20.40;34.50;;;;;;482276;246;1381;-44
2022/01/12 00:17:47;;;;;;;;;;;20.40;34.40;;;;;;482311;246;1361;-44
2022/01/12 00:19:48;;;;;;;;;;;20.30;34.40;;;;;;482671;246;1039;-44
2022/01/12 00:21:49;;;;;;;;;;;20.30;34.50;;;;;;482645;246;2183;-44
2022/01/12 00:23:50;;;;;;;;;;;20.30;34.40;;;;;;482675;246;2189;-43
2022/01/12 00:26:02;;;;;;;;;;;20.40;34.40;;;;;;482692;246;1648;-44
2022/01/12 00:34:58;;;;;;;;;;;21.00;33.40;;;;;;482256;247;1058;-44
2022/01/12 00:36:59;;;;;;;;;;;21.20;33.10;;;;;;482701;246;1196;-44
2022/01/12 00:39:01;;;;;;;;;;;21.30;32.90;;;;;;482709;246;1069;-44
2022/01/12 00:41:02;;;;;;;;;;;21.40;32.80;;;;;;482215;246;1160;-44
2022/01/12 00:43:03;;;;;;;;;;;21.40;32.60;;;;;;482563;246;2134;-44
2022/01/12 00:45:05;;;;;;;;;;;21.50;32.50;;;;;;482476;246;1089;-44
2022/01/12 00:47:06;;;;;;;;;;;21.60;32.40;;;;;;482343;246;1198;-44
2022/01/12 00:49:07;;;;;;;;;;;21.70;32.30;;;;;;482270;246;1050;-44
2022/01/12 00:51:10;;;;;;;;;;;21.70;32.20;;;;;;482542;243;1323;-44
2022/01/12 00:53:10;;;;;;;;;;;21.80;32.20;;;;;;482094;247;2211;-44
2022/01/12 00:55:11;;;;;;;;;;;21.80;32.10;;;;;;482705;246;1096;-44
2022/01/12 00:57:12;;;;;;;;;;;21.80;32.00;;;;;;482274;246;1235;-44
2022/01/12 00:59:14;;;;;;;;;;;21.90;32.00;;;;;;482338;246;1160;-44
2022/01/12 01:01:15;;;;;;;;;;;21.90;32.00;;;;;;482262;246;1206;-44
2022/01/12 01:03:17;;;;;;;;;;;22.00;31.90;;;;;;482658;246;2126;-44
2022/01/12 01:05:21;;;;;;;;;;;22.00;31.90;;;;;;482710;246;1084;-44
2022/01/12 01:07:19;;;;;;;;;;;22.00;31.90;;;;;;482096;247;2245;-44
2022/01/12 01:09:22;;;;;;;;;;;22.00;31.80;;;;;;482257;243;1294;-44
2022/01/12 01:11:23;;;;;;;;;;;22.10;31.80;;;;;;482154;244;2106;-44
2022/01/12 01:13:27;;;;;;;;;;;22.10;31.80;;;;;;482185;246;2457;-44
2022/01/12 01:15:40;;;;;;;;;;;22.10;31.80;;;;;;482345;247;2102;-44
2022/01/12 01:26:59;;;;;;;;;;;22.20;31.50;;;;;;482429;247;1410;-44
2022/01/12 01:29:01;;;;;;;;;;;22.30;31.50;;;;;;482453;246;1222;-44
2022/01/12 01:31:04;;;;;;;;;;;22.20;31.50;;;;;;482366;246;1732;-44
2022/01/12 01:33:06;;;;;;;;;;;22.30;31.50;;;;;;482203;246;2258;-44
2022/01/12 01:35:05;;;;;;;;;;;22.30;31.50;;;;;;482613;247;2213;-44
2022/01/12 01:37:07;;;;;;;;;;;22.30;31.40;;;;;;482391;246;1314;-44
2022/01/12 01:39:08;;;;;;;;;;;22.40;31.50;;;;;;482447;246;1064;-44
2022/01/12 01:41:10;;;;;;;;;;;22.40;31.40;;;;;;482253;246;1376;-44
2022/01/12 01:43:21;;;;;;;;;;;22.40;31.40;;;;;;482669;246;2127;-44
2022/01/12 01:54:34;;;;;;;;;;;22.50;31.40;;;;;;482706;247;1116;-44
2022/01/12 01:56:35;;;;;;;;;;;22.50;31.40;;;;;;482702;246;1238;-44
2022/01/12 01:58:36;;;;;;;;;;;22.50;31.40;;;;;;482639;246;1278;-44
2022/01/12 02:00:38;;;;;;;;;;;22.50;31.40;;;;;;482726;246;1340;-44
2022/01/12 02:02:39;;;;;;;;;;;22.50;31.40;;;;;;482597;246;2126;-44
2022/01/12 02:04:40;;;;;;;;;;;22.50;31.40;;;;;;482596;246;1112;-44
2022/01/12 02:06:42;;;;;;;;;;;22.50;31.40;;;;;;482523;246;1352;-44
2022/01/12 02:08:43;;;;;;;;;;;22.60;31.30;;;;;;482246;246;1199;-44
2022/01/12 02:10:44;;;;;;;;;;;22.60;31.30;;;;;;482474;246;1169;-44
2022/01/12 02:12:47;;;;;;;;;;;22.60;31.30;;;;;;482185;246;1193;-44
2022/01/12 02:14:48;;;;;;;;;;;22.60;31.20;;;;;;482374;246;1210;-44
2022/01/12 02:16:54;;;;;;;;;;;22.60;31.20;;;;;;482230;246;1296;-44
2022/01/12 02:19:11;;;;;;;;;;;22.60;31.20;;;;;;482060;247;2094;-44
2022/01/12 02:35:21;;;;;;;;;;;22.70;31.20;;;;;;482297;247;1259;-44
2022/01/12 02:39:51;;;;;;;;;;;22.70;31.10;;;;;;481948;247;2311;-44
2022/01/12 02:41:39;;;;;;;;;;;22.80;31.10;;;;;;482421;247;1837;-44
2022/01/12 02:50:36;;;;;;;;;;;22.80;31.10;;;;;;482466;246;2242;-44
2022/01/12 02:50:44;;;;;;;;;;;22.60;31.30;;;;;;482261;247;983;-44
2022/01/12 02:54:59;;;;;;;;;;;22.30;31.80;;;;;;482296;247;1198;-44
2022/01/12 02:57:00;;;;;;;;;;;22.10;32.20;;;;;;482376;246;1548;-44
2022/01/12 02:59:02;;;;;;;;;;;21.90;32.40;;;;;;482600;246;1333;-44
2022/01/12 03:01:22;;;;;;;;;;;21.80;32.60;;;;;;482630;246;1371;-44
2022/01/12 03:03:07;;;;;;;;;;;21.70;32.80;;;;;;481624;247;2192;-44
2022/01/12 03:05:32;;;;;;;;;;;21.70;33.00;;;;;;482675;246;944;-44
2022/01/12 03:07:23;;;;;;;;;;;21.60;33.00;;;;;;481458;247;2401;-44
2022/01/12 03:09:23;;;;;;;;;;;21.60;33.10;;;;;;482407;247;1549;-44
2022/01/12 03:11:24;;;;;;;;;;;21.50;33.20;;;;;;482246;244;1064;-44
2022/01/12 03:13:26;;;;;;;;;;;21.40;33.20;;;;;;482248;246;1076;-44
2022/01/12 03:15:27;;;;;;;;;;;21.40;33.40;;;;;;482357;246;1213;-44
2022/01/12 03:17:28;;;;;;;;;;;21.40;33.40;;;;;;482701;246;1052;-44
2022/01/12 03:19:30;;;;;;;;;;;21.30;33.50;;;;;;482730;246;1332;-44
2022/01/12 03:21:31;;;;;;;;;;;21.30;33.50;;;;;;482519;246;1173;-44
2022/01/12 03:23:32;;;;;;;;;;;21.20;33.50;;;;;;482245;246;2126;-44
2022/01/12 03:25:34;;;;;;;;;;;21.20;33.60;;;;;;482726;246;1064;-44
2022/01/12 03:27:35;;;;;;;;;;;21.20;33.60;;;;;;482290;246;1180;-44
2022/01/12 03:29:36;;;;;;;;;;;21.20;33.70;;;;;;482592;246;1234;-44
2022/01/12 03:31:38;;;;;;;;;;;21.20;33.60;;;;;;482369;246;1268;-44
2022/01/12 03:33:53;;;;;;;;;;;21.20;33.70;;;;;;482201;246;1201;-44
2022/01/12 03:36:12;;;;;;;;;;;21.20;33.70;;;;;;482417;247;2185;-44
2022/01/12 03:38:19;;;;;;;;;;;21.10;33.70;;;;;;480815;247;1922;-44
2022/01/12 03:39:57;;;;;;;;;;;21.10;33.80;;;;;;480924;247;1982;-44
2022/01/12 03:41:58;;;;;;;;;;;21.10;33.80;;;;;;482330;246;1237;-44
2022/01/12 03:43:59;;;;;;;;;;;21.10;33.70;;;;;;482235;246;2130;-44
2022/01/12 03:46:01;;;;;;;;;;;21.10;33.80;;;;;;482264;246;1214;-42
2022/01/12 03:48:02;;;;;;;;;;;21.00;33.80;;;;;;482658;246;1269;-44
2022/01/12 03:50:03;;;;;;;;;;;21.00;33.90;;;;;;482725;246;947;-44
2022/01/12 03:52:04;;;;;;;;;;;21.00;33.90;;;;;;482268;246;1250;-44
2022/01/12 03:54:06;;;;;;;;;;;21.00;33.90;;;;;;482683;246;1100;-44
2022/01/12 03:56:07;;;;;;;;;;;21.00;33.90;;;;;;482487;246;1166;-44
2022/01/12 03:58:10;;;;;;;;;;;21.00;33.90;;;;;;482688;246;1190;-44
2022/01/12 04:00:10;;;;;;;;;;;21.00;33.90;;;;;;482258;246;2277;-44
2022/01/12 04:02:12;;;;;;;;;;;21.00;34.00;;;;;;482201;246;1177;-44
2022/01/12 04:04:20;;;;;;;;;;;21.00;34.00;;;;;;482308;246;2193;-44
2022/01/12 04:08:34;;;;;;;;;;;20.90;34.00;;;;;;482693;247;1049;-44
2022/01/12 04:10:35;;;;;;;;;;;20.90;34.00;;;;;;482251;246;1390;-44
2022/01/12 04:12:37;;;;;;;;;;;20.90;34.10;;;;;;482530;246;1216;-44
2022/01/12 04:14:38;;;;;;;;;;;20.90;34.10;;;;;;482229;246;1167;-44
2022/01/12 04:16:39;;;;;;;;;;;20.90;34.10;;;;;;482594;246;1575;-44
2022/01/12 04:18:41;;;;;;;;;;;20.80;34.10;;;;;;482631;246;1003;-44
2022/01/12 04:20:45;;;;;;;;;;;20.80;34.10;;;;;;482668;246;1333;-44
2022/01/12 04:25:03;;;;;;;;;;;20.80;34.10;;;;;;482720;247;2109;-44
2022/01/12 04:27:04;;;;;;;;;;;20.80;34.10;;;;;;482288;246;1223;-44
2022/01/12 04:29:06;;;;;;;;;;;20.80;34.10;;;;;;482262;246;1087;-44
2022/01/12 04:31:08;;;;;;;;;;;20.80;34.10;;;;;;482328;246;1350;-44
2022/01/12 04:33:09;;;;;;;;;;;20.80;34.10;;;;;;482230;246;1177;-44
2022/01/12 04:35:13;;;;;;;;;;;20.80;34.10;;;;;;482282;246;970;-44
2022/01/12 04:37:12;;;;;;;;;;;20.80;34.20;;;;;;482058;247;2006;-44
2022/01/12 04:39:13;;;;;;;;;;;20.80;34.20;;;;;;482222;246;1087;-44
2022/01/12 04:41:14;;;;;;;;;;;20.80;34.20;;;;;;482511;246;1165;-44
2022/01/12 04:43:16;;;;;;;;;;;20.80;34.00;;;;;;482273;246;994;-44
2022/01/12 04:45:31;;;;;;;;;;;20.80;34.10;;;;;;482646;246;2118;-44
2022/01/12 04:47:40;;;;;;;;;;;20.80;34.10;;;;;;481286;247;2036;-44
2022/01/12 04:49:47;;;;;;;;;;;20.80;34.20;;;;;;481817;247;1510;-44
2022/01/12 04:51:38;;;;;;;;;;;20.80;34.10;;;;;;481656;247;2016;-44
2022/01/12 04:53:39;;;;;;;;;;;20.80;34.20;;;;;;482239;246;1151;-44
2022/01/12 04:55:40;;;;;;;;;;;20.80;34.30;;;;;;482712;246;1230;-44
2022/01/12 04:57:42;;;;;;;;;;;20.80;34.20;;;;;;482648;246;1209;-44
2022/01/12 05:00:00;;;;;;;;;;;20.80;34.20;;;;;;482705;246;1084;-44
2022/01/12 05:01:52;;;;;;;;;;;20.70;34.20;;;;;;481090;247;1458;-44
2022/01/12 05:06:39;;;;;;;;;;;20.70;34.20;;;;;;482634;247;1127;-44
2022/01/12 05:08:36;;;;;;;;;;;20.70;34.20;;;;;;481131;247;1945;-44
2022/01/12 05:12:52;;;;;;;;;;;20.70;34.10;;;;;;482188;247;1089;-44
2022/01/12 05:15:02;;;;;;;;;;;20.70;34.20;;;;;;482410;247;2017;-44
2022/01/12 05:16:54;;;;;;;;;;;20.70;34.20;;;;;;481610;247;2427;-44
2022/01/12 05:18:55;;;;;;;;;;;20.70;34.20;;;;;;482134;246;1301;-44
2022/01/12 05:20:56;;;;;;;;;;;20.70;34.20;;;;;;482397;246;1126;-44
2022/01/12 05:22:58;;;;;;;;;;;20.70;34.20;;;;;;482308;246;1171;-44
2022/01/12 05:24:59;;;;;;;;;;;20.70;34.20;;;;;;482186;246;2188;-44
2022/01/12 05:27:00;;;;;;;;;;;20.70;34.20;;;;;;482584;246;1686;-44
2022/01/12 05:29:02;;;;;;;;;;;20.70;34.20;;;;;;482469;246;1049;-44
2022/01/12 05:31:03;;;;;;;;;;;20.70;34.20;;;;;;482128;246;1297;-44
2022/01/12 05:33:04;;;;;;;;;;;20.70;34.20;;;;;;482408;246;2124;-44
2022/01/12 05:35:07;;;;;;;;;;;20.60;34.20;;;;;;482314;246;1037;-44
2022/01/12 05:37:07;;;;;;;;;;;20.70;34.20;;;;;;481995;247;1946;-44
2022/01/12 05:39:08;;;;;;;;;;;20.70;34.20;;;;;;482475;246;1043;-44
2022/01/12 05:41:09;;;;;;;;;;;20.70;34.20;;;;;;482420;246;1229;-44
2022/01/12 05:43:11;;;;;;;;;;;20.70;34.20;;;;;;482344;246;1203;-44
2022/01/12 05:45:12;;;;;;;;;;;20.70;34.30;;;;;;482203;246;2122;-44
2022/01/12 05:47:31;;;;;;;;;;;20.70;34.20;;;;;;481993;246;1200;-44
2022/01/12 05:51:34;;;;;;;;;;;20.70;34.20;;;;;;482349;247;1339;-44
2022/01/12 05:53:35;;;;;;;;;;;20.60;34.20;;;;;;482368;246;1062;-44
2022/01/12 05:55:36;;;;;;;;;;;20.70;34.30;;;;;;482424;246;953;-44
2022/01/12 05:57:38;;;;;;;;;;;20.60;34.30;;;;;;482191;246;1167;-44
2022/01/12 05:59:39;;;;;;;;;;;20.60;34.30;;;;;;482412;246;1037;-44
2022/01/12 06:01:40;;;;;;;;;;;20.60;34.30;;;;;;482015;246;1319;-43
2022/01/12 06:03:42;;;;;;;;;;;20.60;34.30;;;;;;482166;246;1054;-43
2022/01/12 06:05:43;;;;;;;;;;;20.60;34.30;;;;;;482116;246;2189;-44
2022/01/12 06:07:44;;;;;;;;;;;20.70;34.30;;;;;;481956;246;1296;-44
2022/01/12 06:09:46;;;;;;;;;;;20.60;34.30;;;;;;482150;246;1040;-44
2022/01/12 06:11:47;;;;;;;;;;;20.60;34.30;;;;;;482378;246;1345;-44
2022/01/12 06:13:50;;;;;;;;;;;20.60;34.20;;;;;;482109;246;1065;-44
2022/01/12 06:15:50;;;;;;;;;;;20.60;34.20;;;;;;482269;247;1291;-44
2022/01/12 06:17:51;;;;;;;;;;;20.60;34.30;;;;;;482044;246;1352;-44
2022/01/12 06:19:53;;;;;;;;;;;20.60;34.30;;;;;;482092;246;1072;-44
2022/01/12 06:21:54;;;;;;;;;;;20.60;34.30;;;;;;481932;246;1451;-43
2022/01/12 06:23:55;;;;;;;;;;;20.60;34.30;;;;;;482160;246;1223;-44
2022/01/12 06:25:57;;;;;;;;;;;20.60;34.30;;;;;;482284;246;2185;-44
2022/01/12 06:28:19;;;;;;;;;;;20.60;34.30;;;;;;481882;246;1218;-44
2022/01/12 06:30:14;;;;;;;;;;;20.60;34.30;;;;;;480481;247;1455;-44
2022/01/12 06:32:04;;;;;;;;;;;20.60;34.30;;;;;;481167;247;2202;-44
2022/01/12 06:34:06;;;;;;;;;;;20.60;34.30;;;;;;482069;246;1136;-44
2022/01/12 06:36:07;;;;;;;;;;;20.60;34.30;;;;;;481959;246;1565;-44
2022/01/12 06:38:08;;;;;;;;;;;20.60;34.20;;;;;;482097;246;1096;-44
2022/01/12 06:40:10;;;;;;;;;;;20.60;34.30;;;;;;482104;246;992;-44
2022/01/12 06:42:11;;;;;;;;;;;20.60;34.30;;;;;;482008;246;1178;-44
2022/01/12 06:44:12;;;;;;;;;;;20.60;34.30;;;;;;482168;246;2129;-44
2022/01/12 06:46:15;;;;;;;;;;;20.60;34.30;;;;;;482119;246;1298;-44
2022/01/12 06:48:15;;;;;;;;;;;20.60;34.40;;;;;;482128;246;2076;-44
2022/01/12 06:50:17;;;;;;;;;;;20.50;34.30;;;;;;482035;246;1057;-44
2022/01/12 06:52:18;;;;;;;;;;;20.60;34.40;;;;;;482367;246;1239;-43
2022/01/12 06:54:19;;;;;;;;;;;20.60;34.30;;;;;;482198;246;1050;-44
2022/01/12 06:56:21;;;;;;;;;;;20.60;34.30;;;;;;482376;246;1375;-44
2022/01/12 06:58:22;;;;;;;;;;;20.50;34.30;;;;;;482191;246;1138;-44
2022/01/12 07:00:23;;;;;;;;;;;20.60;34.30;;;;;;481998;246;1059;-44
2022/01/12 07:02:25;;;;;;;;;;;20.60;34.30;;;;;;481925;246;1231;-44
2022/01/12 07:04:26;;;;;;;;;;;20.60;34.30;;;;;;482241;246;2122;-44
2022/01/12 07:06:27;;;;;;;;;;;20.60;34.30;;;;;;481915;246;1553;-44
2022/01/12 07:08:29;;;;;;;;;;;20.60;34.30;;;;;;481870;246;1087;-44
2022/01/12 07:10:30;;;;;;;;;;;20.60;34.30;;;;;;482070;246;1032;-44
2022/01/12 07:12:31;;;;;;;;;;;20.50;34.30;;;;;;481928;246;1326;-44
2022/01/12 07:14:33;;;;;;;;;;;20.50;34.30;;;;;;481916;246;1073;-44
2022/01/12 07:16:34;;;;;;;;;;;20.50;34.30;;;;;;481817;246;1491;-44
2022/01/12 07:18:35;;;;;;;;;;;20.50;34.30;;;;;;481965;246;1073;-44
2022/01/12 07:20:36;;;;;;;;;;;20.50;34.30;;;;;;482261;246;1062;-44
2022/01/12 07:22:38;;;;;;;;;;;20.50;34.30;;;;;;481897;246;1079;-44
2022/01/12 07:24:39;;;;;;;;;;;20.50;34.30;;;;;;481872;246;2176;-44
2022/01/12 07:26:40;;;;;;;;;;;20.50;34.20;;;;;;481829;246;1085;-44
2022/01/12 07:28:43;;;;;;;;;;;20.50;34.20;;;;;;481945;246;1090;-44
2022/01/12 07:30:43;;;;;;;;;;;20.50;34.20;;;;;;481886;247;2235;-44
2022/01/12 07:32:44;;;;;;;;;;;20.50;34.30;;;;;;481928;246;1122;-44
2022/01/12 07:34:46;;;;;;;;;;;20.60;34.30;;;;;;481693;246;1124;-44
2022/01/12 07:36:47;;;;;;;;;;;20.50;34.20;;;;;;481632;246;1237;-44
2022/01/12 07:38:53;;;;;;;;;;;20.50;34.10;;;;;;481697;246;1068;-44
2022/01/12 07:40:50;;;;;;;;;;;20.50;34.10;;;;;;481416;247;2186;-44
2022/01/12 07:42:51;;;;;;;;;;;20.60;34.20;;;;;;481964;246;1045;-44
2022/01/12 07:44:59;;;;;;;;;;;20.50;34.10;;;;;;481832;246;2192;-44
2022/01/12 07:46:55;;;;;;;;;;;20.50;34.00;;;;;;481383;247;1606;-44
2022/01/12 07:48:56;;;;;;;;;;;20.50;34.00;;;;;;481688;246;1138;-44
2022/01/12 07:50:57;;;;;;;;;;;20.60;33.90;;;;;;481790;243;1331;-44
2022/01/12 07:52:58;;;;;;;;;;;20.60;33.90;;;;;;481811;246;1123;-44
2022/01/12 07:55:00;;;;;;;;;;;20.50;34.00;;;;;;481633;246;1049;-44
2022/01/12 07:57:01;;;;;;;;;;;20.50;34.00;;;;;;481630;246;1475;-44
2022/01/12 07:59:02;;;;;;;;;;;20.50;34.00;;;;;;481643;246;1219;-44
2022/01/12 08:01:04;;;;;;;;;;;20.50;33.90;;;;;;481564;246;1518;-44
2022/01/12 08:03:05;;;;;;;;;;;20.50;33.90;;;;;;481675;246;1257;-44
2022/01/12 08:05:06;;;;;;;;;;;20.50;33.90;;;;;;481682;246;2138;-44
2022/01/12 08:07:10;;;;;;;;;;;20.50;33.90;;;;;;481688;246;1182;-44
2022/01/12 08:09:09;;;;;;;;;;;20.50;33.80;;;;;;481192;247;2498;-44
2022/01/12 08:11:10;;;;;;;;;;;20.50;33.80;;;;;;481503;247;1334;-44
2022/01/12 08:13:11;;;;;;;;;;;20.50;33.90;;;;;;481502;246;1204;-44
2022/01/12 08:15:13;;;;;;;;;;;20.50;33.80;;;;;;481669;246;1163;-44
2022/01/12 08:17:14;;;;;;;;;;;20.50;33.80;;;;;;481772;246;1234;-44
2022/01/12 08:19:17;;;;;;;;;;;20.50;33.70;;;;;;481783;246;1234;-44
2022/01/12 08:21:17;;;;;;;;;;;20.50;33.80;;;;;;481370;246;1573;-44
2022/01/12 08:23:18;;;;;;;;;;;20.50;33.80;;;;;;481640;246;1141;-44
2022/01/12 08:25:19;;;;;;;;;;;20.50;33.70;;;;;;481486;246;2201;-44
2022/01/12 08:27:21;;;;;;;;;;;20.50;33.80;;;;;;481532;246;1162;-44
2022/01/12 08:29:23;;;;;;;;;;;20.50;33.70;;;;;;481492;246;1082;-44
2022/01/12 08:31:23;;;;;;;;;;;20.50;33.70;;;;;;481636;247;2286;-43
2022/01/12 08:33:30;;;;;;;;;;;20.50;32.80;;;;;;507851;234;1115;-44
2022/01/12 08:35:31;;;;;;;;;;;20.50;33.60;;;;;;499514;238;1177;-44
2022/01/12 08:37:33;;;;;;;;;;;20.50;33.60;;;;;;500202;237;1158;-44
2022/01/12 08:39:34;;;;;;;;;;;20.50;33.60;;;;;;499846;237;1242;-44
2022/01/12 08:41:35;;;;;;;;;;;20.50;33.60;;;;;;499696;237;1167;-43
2022/01/12 08:43:37;;;;;;;;;;;20.40;33.60;;;;;;499952;237;1054;-44
2022/01/12 08:45:38;;;;;;;;;;;20.40;33.60;;;;;;499784;237;1225;-44
2022/01/12 08:47:40;;;;;;;;;;;20.50;33.50;;;;;;499742;237;1115;-43
2022/01/12 08:49:41;;;;;;;;;;;20.50;33.50;;;;;;499816;237;1208;-44
2022/01/12 08:51:42;;;;;;;;;;;20.50;33.50;;;;;;499659;237;2175;-44
2022/01/12 08:53:43;;;;;;;;;;;20.50;33.50;;;;;;499854;237;1244;-44
2022/01/12 08:55:45;;;;;;;;;;;20.50;33.50;;;;;;499887;237;1349;-44
2022/01/12 08:57:46;;;;;;;;;;;20.50;33.50;;;;;;499743;237;1165;-43
2022/01/12 08:59:47;;;;;;;;;;;20.40;33.40;;;;;;499925;237;1068;-44
2022/01/12 09:01:48;;;;;;;;;;;20.50;33.50;;;;;;499890;237;1207;-44
2022/01/12 09:03:50;;;;;;;;;;;20.50;33.40;;;;;;499743;237;1064;-44
2022/01/12 09:05:51;;;;;;;;;;;20.50;33.40;;;;;;499857;237;1214;-44
2022/01/12 09:07:54;;;;;;;;;;;20.40;33.40;;;;;;499788;237;1166;-44
2022/01/12 09:09:54;;;;;;;;;;;20.40;33.40;;;;;;499675;237;1502;-44
2022/01/12 09:11:55;;;;;;;;;;;20.40;33.40;;;;;;500432;237;2207;-44
2022/01/12 09:13:57;;;;;;;;;;;20.40;33.40;;;;;;499801;237;1201;-44
2022/01/12 09:16:00;;;;;;;;;;;20.40;33.30;;;;;;499691;237;1232;-44
2022/01/12 09:17:59;;;;;;;;;;;20.40;33.40;;;;;;499919;238;2058;-44
2022/01/12 09:20:01;;;;;;;;;;;20.40;33.30;;;;;;499113;237;1093;-44
2022/01/12 09:22:02;;;;;;;;;;;20.40;33.30;;;;;;499725;237;1112;-44
2022/01/12 09:24:04;;;;;;;;;;;20.40;33.30;;;;;;499778;237;1147;-44
2022/01/12 09:26:05;;;;;;;;;;;20.40;33.20;;;;;;499630;237;1136;-43
2022/01/12 09:28:06;;;;;;;;;;;20.40;33.30;;;;;;499923;237;1169;-44
2022/01/12 09:30:08;;;;;;;;;;;20.40;33.20;;;;;;499592;237;1187;-44
2022/01/12 09:32:09;;;;;;;;;;;20.40;33.20;;;;;;499803;237;2137;-44
2022/01/12 09:34:10;;;;;;;;;;;20.40;33.20;;;;;;497735;237;1169;-44
2022/01/12 09:36:11;;;;;;;;;;;20.40;33.10;;;;;;497526;239;1321;-44
2022/01/12 09:38:13;;;;;;;;;;;20.40;33.20;;;;;;497983;238;1216;-43
2022/01/12 09:40:14;;;;;;;;;;;20.40;33.10;;;;;;497764;239;1339;-44
2022/01/12 09:42:15;;;;;;;;;;;20.40;33.10;;;;;;497778;238;1188;-44
2022/01/12 09:44:18;;;;;;;;;;;20.40;33.10;;;;;;497531;238;1088;-43
2022/01/12 09:46:18;;;;;;;;;;;20.40;33.10;;;;;;497507;236;1253;-43
2022/01/12 09:48:20;;;;;;;;;;;20.40;33.10;;;;;;497507;239;1210;-44
2022/01/12 09:50:21;;;;;;;;;;;20.40;33.10;;;;;;497607;239;1112;-44
2022/01/12 09:52:23;;;;;;;;;;;20.40;33.10;;;;;;497691;239;2197;-44
2022/01/12 09:54:24;;;;;;;;;;;20.40;33.00;;;;;;497732;239;1030;-43
2022/01/12 09:56:25;;;;;;;;;;;20.40;33.00;;;;;;497355;236;1891;-44
2022/01/12 09:58:26;;;;;;;;;;;20.40;33.00;;;;;;497520;239;1088;-44
2022/01/12 10:00:28;;;;;;;;;;;20.40;33.00;;;;;;497665;239;1027;-43
2022/01/12 10:02:29;;;;;;;;;;;20.40;33.00;;;;;;497496;239;1441;-44
2022/01/12 10:04:30;;;;;;;;;;;20.40;33.00;;;;;;497548;239;1212;-44
2022/01/12 10:06:32;;;;;;;;;;;20.40;32.90;;;;;;497405;239;1371;-44
2022/01/12 10:08:33;;;;;;;;;;;20.40;32.90;;;;;;497615;239;1082;-44
2022/01/12 10:10:35;;;;;;;;;;;20.40;33.00;;;;;;497373;239;1372;-44
2022/01/12 10:12:36;;;;;;;;;;;20.40;33.00;;;;;;497514;239;2180;-44
2022/01/12 10:14:37;;;;;;;;;;;20.40;32.90;;;;;;497708;239;1084;-44
2022/01/12 10:16:39;;;;;;;;;;;20.40;33.00;;;;;;497543;239;1342;-44
2022/01/12 10:18:40;;;;;;;;;;;20.30;32.90;;;;;;497503;239;1192;-44
2022/01/12 10:20:41;;;;;;;;;;;20.30;33.00;;;;;;497631;239;1183;-44
2022/01/12 10:22:43;;;;;;;;;;;20.30;32.90;;;;;;497528;239;1316;-43
2022/01/12 10:24:44;;;;;;;;;;;20.30;32.90;;;;;;497485;239;1056;-44
2022/01/12 10:26:45;;;;;;;;;;;20.30;32.80;;;;;;497397;239;1108;-44
2022/01/12 10:28:46;;;;;;;;;;;20.40;32.90;;;;;;497905;239;1040;-44
2022/01/12 10:30:48;;;;;;;;;;;20.30;32.80;;;;;;497531;239;1173;-44
2022/01/12 10:32:49;;;;;;;;;;;20.40;32.90;;;;;;497458;239;2192;-44
2022/01/12 10:34:50;;;;;;;;;;;20.40;32.90;;;;;;497600;239;1226;-44
2022/01/12 10:36:52;;;;;;;;;;;20.40;32.90;;;;;;497664;239;1175;-44
2022/01/12 10:38:53;;;;;;;;;;;20.30;32.90;;;;;;497723;239;1082;-44
2022/01/12 10:40:54;;;;;;;;;;;20.40;32.90;;;;;;497559;239;1181;-44
2022/01/12 10:42:56;;;;;;;;;;;20.40;32.80;;;;;;497716;239;1030;-44
2022/01/12 10:44:57;;;;;;;;;;;20.40;32.80;;;;;;497535;239;1217;-43
2022/01/12 10:46:58;;;;;;;;;;;20.40;32.90;;;;;;497471;239;1297;-44
2022/01/12 10:49:00;;;;;;;;;;;20.40;32.80;;;;;;497633;239;1169;-44
2022/01/12 10:51:01;;;;;;;;;;;20.40;32.80;;;;;;497473;239;2257;-44
2022/01/12 10:53:02;;;;;;;;;;;20.40;32.80;;;;;;497661;239;2180;-43
2022/01/12 10:55:03;;;;;;;;;;;20.40;32.80;;;;;;497477;239;1458;-44
2022/01/12 10:57:05;;;;;;;;;;;20.40;32.70;;;;;;497501;239;1223;-44
2022/01/12 10:59:06;;;;;;;;;;;20.40;32.70;;;;;;497612;239;1142;-44
2022/01/12 11:01:08;;;;;;;;;;;20.40;32.90;;;;;;497736;239;1333;-44
2022/01/12 11:03:09;;;;;;;;;;;20.40;32.90;;;;;;497821;239;1175;-44
2022/01/12 11:05:10;;;;;;;;;;;20.30;32.90;;;;;;497581;239;1210;-44
2022/01/12 11:07:11;;;;;;;;;;;20.40;32.90;;;;;;497429;239;1134;-44
2022/01/12 11:09:13;;;;;;;;;;;20.40;32.90;;;;;;497685;239;1093;-44
2022/01/12 11:11:14;;;;;;;;;;;20.40;32.90;;;;;;497707;236;1314;-44
2022/01/12 11:13:16;;;;;;;;;;;20.40;32.80;;;;;;497657;239;2177;-44
2022/01/12 11:15:17;;;;;;;;;;;20.40;32.80;;;;;;497516;239;1096;-43
2022/01/12 11:17:18;;;;;;;;;;;20.40;32.90;;;;;;497460;239;1236;-44
2022/01/12 11:19:20;;;;;;;;;;;20.40;33.00;;;;;;497693;239;1180;-43
2022/01/12 11:21:21;;;;;;;;;;;20.40;33.00;;;;;;497675;239;1301;-44
2022/01/12 11:23:22;;;;;;;;;;;20.40;33.00;;;;;;497646;239;1123;-44
2022/01/12 11:25:24;;;;;;;;;;;20.40;32.90;;;;;;497745;239;1321;-43
2022/01/12 11:27:25;;;;;;;;;;;20.40;32.90;;;;;;497688;239;1249;-44
2022/01/12 11:29:26;;;;;;;;;;;20.40;32.90;;;;;;497513;239;1060;-44
2022/01/12 11:31:28;;;;;;;;;;;20.40;32.90;;;;;;497551;239;1387;-44
2022/01/12 11:33:29;;;;;;;;;;;20.40;32.90;;;;;;498194;239;2181;-44
2022/01/12 11:35:32;;;;;;;;;;;20.30;33.00;;;;;;497541;239;1337;-44
2022/01/12 11:37:32;;;;;;;;;;;20.30;33.00;;;;;;497473;239;2026;-44
2022/01/12 11:39:33;;;;;;;;;;;20.30;33.00;;;;;;497346;239;1245;-44
2022/01/12 11:41:35;;;;;;;;;;;20.30;33.10;;;;;;497652;236;1141;-44
2022/01/12 11:43:36;;;;;;;;;;;20.20;33.00;;;;;;497540;239;1096;-44
2022/01/12 11:45:38;;;;;;;;;;;20.20;33.00;;;;;;497454;239;1085;-44
2022/01/12 11:47:39;;;;;;;;;;;20.30;33.00;;;;;;497292;239;1223;-44
2022/01/12 11:49:40;;;;;;;;;;;20.30;32.90;;;;;;497340;239;1208;-44
2022/01/12 11:51:42;;;;;;;;;;;20.30;33.00;;;;;;497412;239;1142;-43
2022/01/12 11:53:43;;;;;;;;;;;20.30;32.90;;;;;;497491;239;2125;-44
2022/01/12 11:55:44;;;;;;;;;;;20.30;32.90;;;;;;497354;239;1039;-44
2022/01/12 11:57:46;;;;;;;;;;;20.30;32.80;;;;;;497736;239;1136;-44
2022/01/12 11:59:47;;;;;;;;;;;20.50;32.20;;;;;;497580;239;1192;-44
2022/01/12 12:01:49;;;;;;;;;;;20.70;31.90;;;;;;497524;239;1232;-44
2022/01/12 12:03:50;;;;;;;;;;;20.90;31.50;;;;;;497428;239;1312;-44
2022/01/12 12:05:51;;;;;;;;;;;21.00;31.20;;;;;;497548;239;1347;-44
2022/01/12 12:07:53;;;;;;;;;;;21.10;31.10;;;;;;497921;239;1245;-44
2022/01/12 12:09:57;;;;;;;;;;;21.20;31.00;;;;;;497605;239;1061;-44
2022/01/12 12:11:56;;;;;;;;;;;21.30;30.90;;;;;;497309;239;2306;-44
2022/01/12 12:13:57;;;;;;;;;;;21.30;30.90;;;;;;497676;239;2126;-44
2022/01/12 12:15:58;;;;;;;;;;;21.40;30.70;;;;;;497589;239;1130;-44
2022/01/12 12:18:04;;;;;;;;;;;21.40;30.60;;;;;;497522;239;1482;-44
2022/01/12 12:20:02;;;;;;;;;;;21.50;30.40;;;;;;497127;239;2180;-44
2022/01/12 12:22:03;;;;;;;;;;;21.50;30.30;;;;;;497389;239;2002;-44
2022/01/12 12:24:04;;;;;;;;;;;21.50;30.30;;;;;;497614;239;1158;-44
2022/01/12 12:26:06;;;;;;;;;;;21.60;30.30;;;;;;497570;239;1335;-44
2022/01/12 12:28:08;;;;;;;;;;;21.60;30.30;;;;;;497612;239;1051;-44
2022/01/12 12:30:09;;;;;;;;;;;21.70;30.10;;;;;;497375;239;1707;-44
2022/01/12 12:32:13;;;;;;;;;;;21.70;30.00;;;;;;497334;239;1204;-44
2022/01/12 12:34:11;;;;;;;;;;;21.80;30.10;;;;;;497316;239;2223;-44
2022/01/12 12:36:14;;;;;;;;;;;21.80;30.00;;;;;;497406;239;1204;-44
2022/01/12 12:38:14;;;;;;;;;;;21.80;30.00;;;;;;497425;239;2170;-44
2022/01/12 12:40:15;;;;;;;;;;;21.80;30.00;;;;;;497505;239;1236;-44
2022/01/12 12:42:17;;;;;;;;;;;21.80;30.00;;;;;;497726;239;1266;-44
2022/01/12 12:44:18;;;;;;;;;;;21.80;30.00;;;;;;497504;239;1102;-44
2022/01/12 12:46:20;;;;;;;;;;;21.90;30.00;;;;;;497486;239;1227;-44
2022/01/12 12:48:21;;;;;;;;;;;21.90;29.90;;;;;;497557;239;1108;-44
2022/01/12 12:50:29;;;;;;;;;;;21.90;29.80;;;;;;497459;239;1136;-44
2022/01/12 12:52:24;;;;;;;;;;;22.00;29.80;;;;;;497097;239;2099;-44
2022/01/12 12:54:25;;;;;;;;;;;22.00;29.90;;;;;;497372;239;2114;-44
2022/01/12 12:56:28;;;;;;;;;;;22.00;29.90;;;;;;497533;237;1181;-44
2022/01/12 12:58:28;;;;;;;;;;;22.00;29.90;;;;;;497653;239;1982;-45
2022/01/12 13:00:29;;;;;;;;;;;22.00;29.80;;;;;;498273;239;1073;-44